createdAt,value
2023-01-30T00:01:12.711Z,95552.53
2023-01-30T00:03:39.383Z,95551.78
2023-01-30T00:06:06.096Z,95551.75
2023-01-30T00:08:32.619Z,95545.78
2023-01-30T00:11:05.175Z,95537.44
2023-01-30T00:13:31.828Z,95528.13
2023-01-30T00:15:58.408Z,95526.00
2023-01-30T00:18:25.060Z,95526.81
2023-01-30T00:20:59.736Z,95521.38
2023-01-30T00:23:27.171Z,95517.81
2023-01-30T00:25:54.224Z,95521.44
2023-01-30T00:28:20.867Z,95517.41
2023-01-30T00:30:52.441Z,95518.13
2023-01-30T00:33:20.195Z,95521.53
2023-01-30T00:35:47.829Z,95510.88
2023-01-30T00:38:14.939Z,95504.47
2023-01-30T00:40:41.844Z,95509.53
2023-01-30T00:43:30.907Z,95504.47
2023-01-30T00:46:16.785Z,95500.44
2023-01-30T00:48:43.366Z,95495.34
2023-01-30T00:51:09.969Z,95492.97
2023-01-30T00:53:36.519Z,95491.28
2023-01-30T00:56:03.439Z,95490.94
2023-01-30T00:58:30.062Z,95486.09
2023-01-30T01:00:56.767Z,95493.88
2023-01-30T01:03:23.594Z,95483.53
2023-01-30T01:05:50.291Z,95471.81
2023-01-30T01:08:16.949Z,95463.28
2023-01-30T01:10:43.538Z,95448.63
2023-01-30T01:13:11.245Z,95449.41
2023-01-30T01:15:38.177Z,95444.06
2023-01-30T01:18:05.503Z,95436.44
2023-01-30T01:20:32.032Z,95438.16
2023-01-30T01:22:58.731Z,95444.06
2023-01-30T01:25:25.738Z,95440.22
2023-01-30T01:27:53.772Z,95438.66
2023-01-30T01:30:20.506Z,95443.22
2023-01-30T01:32:47.127Z,95447.25
2023-01-30T01:35:13.711Z,95449.06
2023-01-30T01:37:40.342Z,95447.44
2023-01-30T01:40:26.689Z,95446.47
2023-01-30T01:42:53.321Z,95445.97
2023-01-30T01:45:24.586Z,95442.03
2023-01-30T01:48:20.857Z,95436.47
2023-01-30T01:50:55.942Z,95429.06
2023-01-30T01:53:29.264Z,95417.22
2023-01-30T01:56:00.060Z,95413.69
2023-01-30T01:58:45.982Z,95414.41
2023-01-30T02:01:12.677Z,95414.38
2023-01-30T02:03:44.805Z,95415.88
2023-01-30T02:06:13.019Z,95417.38
2023-01-30T02:08:44.794Z,95430.72
2023-01-30T02:11:22.940Z,95428.31
2023-01-30T02:13:50.721Z,95429.53
2023-01-30T02:16:21.022Z,95432.09
2023-01-30T02:18:48.382Z,95430.34
2023-01-30T02:21:18.026Z,95426.34
2023-01-30T02:24:17.147Z,95434.91
2023-01-30T02:27:04.132Z,95444.78
2023-01-30T02:29:49.853Z,95448.28
2023-01-30T02:32:22.543Z,95443.75
2023-01-30T02:35:07.661Z,95435.56
2023-01-30T02:37:47.286Z,95437.16
2023-01-30T02:41:10.234Z,95442.19
2023-01-30T02:43:44.614Z,95444.16
2023-01-30T02:46:14.298Z,95448.56
2023-01-30T02:48:51.266Z,95452.13
2023-01-30T02:51:19.629Z,95466.38
2023-01-30T02:53:48.582Z,95458.66
2023-01-30T02:56:15.719Z,95457.88
2023-01-30T02:58:52.936Z,95474.59
2023-01-30T03:01:39.008Z,95480.44
2023-01-30T03:04:26.475Z,95486.41
2023-01-30T03:07:02.550Z,95503.06
2023-01-30T03:09:51.313Z,95491.25
2023-01-30T03:12:30.696Z,95499.03
2023-01-30T03:15:08.517Z,95490.84
2023-01-30T03:17:37.062Z,95484.97
2023-01-30T03:20:04.333Z,95482.22
2023-01-30T03:22:32.036Z,95478.72
2023-01-30T03:24:58.852Z,95474.28
2023-01-30T03:27:25.678Z,95451.56
2023-01-30T03:29:52.539Z,95454.81
2023-01-30T03:32:20.179Z,95464.06
2023-01-30T03:34:46.996Z,95455.22
2023-01-30T03:37:13.652Z,95460.19
2023-01-30T03:39:40.328Z,95456.00
2023-01-30T03:42:07.315Z,95446.47
2023-01-30T03:44:33.938Z,95440.91
2023-01-30T03:47:00.532Z,95444.97
2023-01-30T03:49:28.216Z,95431.84
2023-01-30T03:51:56.250Z,95425.00
2023-01-30T03:54:22.874Z,95420.91
2023-01-30T03:56:49.578Z,95417.13
2023-01-30T03:59:16.453Z,95425.66
2023-01-30T04:01:49.882Z,95416.34
2023-01-30T04:04:16.728Z,95430.25
2023-01-30T04:06:43.389Z,95424.25
2023-01-30T04:09:10.207Z,95422.78
2023-01-30T04:11:41.922Z,95424.09
2023-01-30T04:14:08.552Z,95436.63
2023-01-30T04:16:44.438Z,95463.22
2023-01-30T04:19:29.684Z,95458.41
2023-01-30T04:21:56.418Z,95447.78
2023-01-30T04:24:23.037Z,95440.31
2023-01-30T04:26:49.679Z,95432.31
2023-01-30T04:29:16.307Z,95423.50
2023-01-30T04:31:44.724Z,95421.03
2023-01-30T04:34:23.579Z,95425.19
2023-01-30T04:36:50.134Z,95421.63
2023-01-30T04:39:17.402Z,95415.59
2023-01-30T04:41:44.030Z,95418.03
2023-01-30T04:44:10.776Z,95415.41
2023-01-30T04:46:50.880Z,95399.69
2023-01-30T04:49:17.541Z,95389.47
2023-01-30T04:51:44.122Z,95379.66
2023-01-30T04:54:10.698Z,95378.16
2023-01-30T04:56:37.265Z,95374.69
2023-01-30T04:59:05.296Z,95391.97
2023-01-30T05:01:39.379Z,95387.72
2023-01-30T05:04:07.489Z,95388.69
2023-01-30T05:06:35.093Z,95383.03
2023-01-30T05:09:01.834Z,95383.16
2023-01-30T05:11:30.143Z,95397.19
2023-01-30T05:13:56.709Z,95399.16
2023-01-30T05:16:24.107Z,95370.19
2023-01-30T05:18:50.975Z,95359.28
2023-01-30T05:21:23.577Z,95360.69
2023-01-30T05:23:51.129Z,95369.31
2023-01-30T05:26:17.688Z,95371.47
2023-01-30T05:28:44.455Z,95363.56
2023-01-30T05:31:13.230Z,95366.78
2023-01-30T05:33:40.833Z,95365.31
2023-01-30T05:36:08.753Z,95355.78
2023-01-30T05:38:35.276Z,95365.91
2023-01-30T05:41:06.261Z,95370.13
2023-01-30T05:43:33.975Z,95369.31
2023-01-30T05:46:02.129Z,95377.22
2023-01-30T05:48:29.057Z,95369.56
2023-01-30T05:50:58.540Z,95373.78
2023-01-30T05:53:28.515Z,95381.47
2023-01-30T05:55:59.896Z,95370.56
2023-01-30T05:58:27.710Z,95362.38
2023-01-30T06:00:54.602Z,95359.59
2023-01-30T06:03:21.410Z,95346.88
2023-01-30T06:05:47.986Z,95346.31
2023-01-30T06:08:14.548Z,95358.50
2023-01-30T06:10:41.135Z,95355.28
2023-01-30T06:13:07.817Z,95357.41
2023-01-30T06:15:37.130Z,95364.19
2023-01-30T06:18:03.799Z,95368.78
2023-01-30T06:20:30.411Z,95361.91
2023-01-30T06:22:57.100Z,95356.81
2023-01-30T06:25:23.685Z,95367.91
2023-01-30T06:27:50.249Z,95364.25
2023-01-30T06:30:17.008Z,95364.28
2023-01-30T06:32:43.615Z,95362.44
2023-01-30T06:35:10.215Z,95356.16
2023-01-30T06:37:36.782Z,95346.81
2023-01-30T06:40:03.539Z,95345.63
2023-01-30T06:42:30.112Z,95344.28
2023-01-30T06:44:56.639Z,95348.78
2023-01-30T06:47:23.384Z,95343.19
2023-01-30T06:49:49.927Z,95350.34
2023-01-30T06:52:16.575Z,95359.53
2023-01-30T06:54:43.149Z,95358.09
2023-01-30T06:57:09.779Z,95369.13
2023-01-30T06:59:36.341Z,95370.91
2023-01-30T07:02:02.963Z,95375.06
2023-01-30T07:04:32.458Z,95378.56
2023-01-30T07:06:59.146Z,95388.69
2023-01-30T07:09:25.722Z,95385.13
2023-01-30T07:11:52.324Z,95384.66
2023-01-30T07:14:18.962Z,95382.00
2023-01-30T07:16:45.579Z,95379.44
2023-01-30T07:19:12.250Z,95381.88
2023-01-30T07:21:38.776Z,95384.75
2023-01-30T07:24:05.578Z,95380.81
2023-01-30T07:26:32.194Z,95389.41
2023-01-30T07:28:58.771Z,95392.22
2023-01-30T07:31:25.380Z,95393.03
2023-01-30T07:33:52.028Z,95395.16
2023-01-30T07:36:18.600Z,95403.81
2023-01-30T07:38:45.227Z,95407.88
2023-01-30T07:41:11.780Z,95400.84
2023-01-30T07:43:38.306Z,95399.41
2023-01-30T07:46:05.016Z,95397.22
2023-01-30T07:48:31.584Z,95403.22
2023-01-30T07:50:58.133Z,95403.84
2023-01-30T07:53:24.995Z,95398.50
2023-01-30T07:55:51.631Z,95393.84
2023-01-30T07:58:18.171Z,95384.69
2023-01-30T08:00:45.062Z,95391.69
2023-01-30T08:03:16.847Z,95379.06
2023-01-30T08:05:46.801Z,95383.19
2023-01-30T08:08:13.702Z,95383.19
2023-01-30T08:10:40.265Z,95390.06
2023-01-30T08:13:06.783Z,95394.63
2023-01-30T08:15:33.591Z,95395.00
2023-01-30T08:18:00.301Z,95387.25
2023-01-30T08:20:27.837Z,95380.88
2023-01-30T08:22:55.238Z,95373.97
2023-01-30T08:25:22.517Z,95373.81
2023-01-30T08:27:49.308Z,95373.28
2023-01-30T08:30:17.949Z,95379.19
2023-01-30T08:32:44.767Z,95372.22
2023-01-30T08:35:11.555Z,95365.47
2023-01-30T08:37:41.915Z,95369.66
2023-01-30T08:40:09.446Z,95358.53
2023-01-30T08:42:36.018Z,95342.66
2023-01-30T08:45:02.696Z,95349.97
2023-01-30T08:47:29.252Z,95346.25
2023-01-30T08:49:55.847Z,95345.13
2023-01-30T08:52:22.402Z,95340.94
2023-01-30T08:54:49.022Z,95334.59
2023-01-30T08:57:15.950Z,95336.34
2023-01-30T08:59:43.293Z,95334.63
2023-01-30T09:02:11.361Z,95330.47
2023-01-30T09:04:38.111Z,95315.09
2023-01-30T09:07:04.839Z,95319.97
2023-01-30T09:09:31.439Z,95314.97
2023-01-30T09:11:57.993Z,95325.53
2023-01-30T09:14:24.679Z,95325.78
2023-01-30T09:16:55.837Z,95321.25
2023-01-30T09:19:27.078Z,95294.25
2023-01-30T09:21:55.190Z,95302.59
2023-01-30T09:24:26.601Z,95317.16
2023-01-30T09:26:58.835Z,95315.88
2023-01-30T09:29:26.256Z,95303.59
2023-01-30T09:31:56.031Z,95311.59
2023-01-30T09:34:28.425Z,95328.16
2023-01-30T09:36:56.927Z,95325.75
2023-01-30T09:39:23.576Z,95329.72
2023-01-30T09:41:53.092Z,95332.97
2023-01-30T09:44:41.150Z,95313.56
2023-01-30T09:47:13.745Z,95306.06
2023-01-30T09:49:53.429Z,95316.50
2023-01-30T09:52:52.694Z,95293.81
2023-01-30T09:55:32.448Z,95295.88
2023-01-30T09:58:00.587Z,95280.25
2023-01-30T10:00:34.007Z,95278.81
2023-01-30T10:03:11.908Z,95286.91
2023-01-30T10:06:16.847Z,95288.72
2023-01-30T10:08:55.752Z,95276.97
2023-01-30T10:11:36.790Z,95267.94
2023-01-30T10:14:25.713Z,95291.88
2023-01-30T10:17:17.310Z,95287.72
2023-01-30T10:19:59.411Z,95288.41
2023-01-30T10:22:54.734Z,95274.22
2023-01-30T10:25:53.808Z,95264.53
2023-01-30T10:28:23.059Z,95257.69
2023-01-30T10:30:52.645Z,95254.13
2023-01-30T10:33:25.073Z,95254.53
2023-01-30T10:36:06.418Z,95233.97
2023-01-30T10:38:40.608Z,95235.13
2023-01-30T10:41:19.201Z,95228.88
2023-01-30T10:43:54.678Z,95216.28
2023-01-30T10:46:51.342Z,95228.03
2023-01-30T10:49:42.081Z,95229.56
2023-01-30T10:52:30.196Z,95229.66
2023-01-30T10:55:37.332Z,95217.19
2023-01-30T10:58:23.595Z,95233.72
2023-01-30T11:01:01.145Z,95209.72
2023-01-30T11:03:48.069Z,95218.19
2023-01-30T11:06:23.783Z,95219.59
2023-01-30T11:08:51.638Z,95221.72
2023-01-30T11:11:48.141Z,95233.56
2023-01-30T11:14:14.810Z,95220.88
2023-01-30T11:16:54.433Z,95216.81
2023-01-30T11:19:32.642Z,95212.88
2023-01-30T11:22:05.126Z,95199.16
2023-01-30T11:24:41.409Z,95205.31
2023-01-30T11:27:25.139Z,95203.75
2023-01-30T11:30:03.670Z,95197.91
2023-01-30T11:32:30.256Z,95194.03
2023-01-30T11:35:03.071Z,95190.44
2023-01-30T11:37:42.084Z,95188.31
2023-01-30T11:40:23.851Z,95179.03
2023-01-30T11:43:12.071Z,95179.25
2023-01-30T11:45:50.228Z,95174.97
2023-01-30T11:48:34.150Z,95166.81
2023-01-30T11:51:11.172Z,95166.19
2023-01-30T11:53:39.862Z,95165.63
2023-01-30T11:56:17.096Z,95156.41
2023-01-30T11:58:49.722Z,95142.75
2023-01-30T12:01:17.331Z,95146.50
2023-01-30T12:03:54.343Z,95146.72
2023-01-30T12:06:30.042Z,95146.69
2023-01-30T12:08:56.830Z,95144.66
2023-01-30T12:11:32.253Z,95127.00
2023-01-30T12:14:25.520Z,95119.78
2023-01-30T12:17:04.315Z,95126.31
2023-01-30T12:19:33.827Z,95117.53
2023-01-30T12:22:22.037Z,95117.81
2023-01-30T12:25:01.167Z,95107.91
2023-01-30T12:27:49.090Z,95112.06
2023-01-30T12:30:36.934Z,95104.47
2023-01-30T12:33:06.791Z,95112.13
2023-01-30T12:35:53.068Z,95107.91
2023-01-30T12:38:31.991Z,95104.53
2023-01-30T12:41:45.240Z,95099.22
2023-01-30T12:44:42.485Z,95096.28
2023-01-30T12:47:33.511Z,95088.19
2023-01-30T12:50:12.207Z,95081.56
2023-01-30T12:52:57.482Z,95072.38
2023-01-30T12:55:32.869Z,95062.16
2023-01-30T12:58:07.549Z,95060.25
2023-01-30T13:00:45.190Z,95051.69
2023-01-30T13:03:55.398Z,95047.69
2023-01-30T13:07:06.267Z,95049.53
2023-01-30T13:09:38.476Z,95030.81
2023-01-30T13:12:20.259Z,95044.66
2023-01-30T13:14:57.910Z,95045.38
2023-01-30T13:17:41.840Z,95050.94
2023-01-30T13:20:31.402Z,95055.34
2023-01-30T13:23:06.493Z,95065.19
2023-01-30T13:25:42.728Z,95066.84
2023-01-30T13:28:33.577Z,95070.66
2023-01-30T13:31:00.622Z,95058.59
2023-01-30T13:33:33.693Z,95071.06
2023-01-30T13:36:27.336Z,95084.25
2023-01-30T13:38:55.893Z,95080.78
2023-01-30T13:41:24.391Z,95075.59
2023-01-30T13:43:53.806Z,95080.00
2023-01-30T13:46:27.499Z,95090.84
2023-01-30T13:49:03.117Z,95091.41
2023-01-30T13:51:41.834Z,95087.78
2023-01-30T13:54:32.914Z,95095.75
2023-01-30T13:57:25.166Z,95080.31
2023-01-30T14:00:16.883Z,95083.19
2023-01-30T14:03:27.857Z,95077.69
2023-01-30T14:06:06.265Z,95084.91
2023-01-30T14:08:45.549Z,95097.47
2023-01-30T14:11:37.161Z,95108.78
2023-01-30T14:14:21.613Z,95103.50
2023-01-30T14:16:51.935Z,95118.97
2023-01-30T14:19:39.610Z,95118.44
2023-01-30T14:22:39.613Z,95127.22
2023-01-30T14:25:56.496Z,95127.66
2023-01-30T14:28:29.444Z,95143.72
2023-01-30T14:30:59.103Z,95136.31
2023-01-30T14:33:25.646Z,95144.97
2023-01-30T14:35:58.247Z,95150.56
2023-01-30T14:38:56.312Z,95167.38
2023-01-30T14:41:28.128Z,95161.78
2023-01-30T14:43:54.772Z,95163.69
2023-01-30T14:46:21.369Z,95167.94
2023-01-30T14:48:49.943Z,95177.75
2023-01-30T14:51:35.907Z,95185.09
2023-01-30T14:54:13.052Z,95192.44
2023-01-30T14:57:05.529Z,95199.69
2023-01-30T14:59:59.369Z,95204.22
2023-01-30T15:02:44.136Z,95204.19
2023-01-30T15:05:15.166Z,95206.13
2023-01-30T15:07:44.864Z,95200.09
2023-01-30T15:10:33.093Z,95214.63
2023-01-30T15:13:08.805Z,95218.28
2023-01-30T15:15:44.197Z,95227.13
2023-01-30T15:18:36.672Z,95226.69
2023-01-30T15:21:03.165Z,95227.41
2023-01-30T15:23:51.420Z,95234.00
2023-01-30T15:26:28.920Z,95231.38
2023-01-30T15:29:32.479Z,95249.16
2023-01-30T15:32:01.900Z,95252.69
2023-01-30T15:34:34.378Z,95265.09
2023-01-30T15:37:00.992Z,95267.53
2023-01-30T15:39:28.399Z,95272.72
2023-01-30T15:42:05.942Z,95280.34
2023-01-30T15:44:51.374Z,95274.63
2023-01-30T15:47:35.866Z,95293.88
2023-01-30T15:50:10.218Z,95291.34
2023-01-30T15:52:36.673Z,95299.78
2023-01-30T15:55:03.943Z,95311.91
2023-01-30T15:57:36.337Z,95305.97
2023-01-30T16:00:06.884Z,95323.69
2023-01-30T16:02:42.552Z,95320.97
2023-01-30T16:05:18.674Z,95327.88
2023-01-30T16:07:47.657Z,95323.63
2023-01-30T16:10:20.988Z,95348.78
2023-01-30T16:12:49.948Z,95349.25
2023-01-30T16:15:32.121Z,95356.41
2023-01-30T16:18:27.049Z,95352.25
2023-01-30T16:21:02.467Z,95356.78
2023-01-30T16:23:58.241Z,95355.44
2023-01-30T16:26:24.881Z,95353.88
2023-01-30T16:29:03.506Z,95365.97
2023-01-30T16:31:35.701Z,95372.69
2023-01-30T16:34:02.780Z,95372.34
2023-01-30T16:36:33.119Z,95384.88
2023-01-30T16:39:00.206Z,95390.69
2023-01-30T16:41:36.373Z,95397.69
2023-01-30T16:44:24.451Z,95405.56
2023-01-30T16:47:04.623Z,95403.66
2023-01-30T16:49:37.120Z,95398.78
2023-01-30T16:52:22.578Z,95408.84
2023-01-30T16:54:54.998Z,95398.78
2023-01-30T16:57:28.618Z,95394.59
2023-01-30T16:59:56.218Z,95388.31
2023-01-30T17:02:42.611Z,95366.09
2023-01-30T17:05:18.107Z,95361.94
2023-01-30T17:07:45.426Z,95358.66
2023-01-30T17:10:40.126Z,95353.28
2023-01-30T17:13:27.525Z,95366.69
2023-01-30T17:15:54.749Z,95379.16
2023-01-30T17:18:21.367Z,95384.59
2023-01-30T17:20:51.255Z,95388.28
2023-01-30T17:23:20.795Z,95389.75
2023-01-30T17:25:49.326Z,95392.13
2023-01-30T17:28:21.130Z,95406.81
2023-01-30T17:30:48.395Z,95418.72
2023-01-30T17:33:15.081Z,95418.25
2023-01-30T17:35:41.746Z,95431.59
2023-01-30T17:38:10.469Z,95427.16
2023-01-30T17:40:38.047Z,95442.34
2023-01-30T17:43:05.522Z,95428.78
2023-01-30T17:45:32.071Z,95437.44
2023-01-30T17:47:59.078Z,95446.59
2023-01-30T17:50:28.547Z,95449.50
2023-01-30T17:52:55.208Z,95449.81
2023-01-30T17:55:24.541Z,95450.47
2023-01-30T17:57:51.214Z,95433.69
2023-01-30T18:00:20.170Z,95429.53
2023-01-30T18:02:47.144Z,95429.09
2023-01-30T18:05:14.020Z,95433.38
2023-01-30T18:07:42.409Z,95427.28
2023-01-30T18:10:15.381Z,95444.94
2023-01-30T18:12:42.753Z,95451.75
2023-01-30T18:15:10.327Z,95461.16
2023-01-30T18:17:43.615Z,95469.44
2023-01-30T18:20:12.910Z,95468.56
2023-01-30T18:22:39.496Z,95473.56
2023-01-30T18:25:06.688Z,95478.97
2023-01-30T18:27:35.650Z,95484.22
2023-01-30T18:30:03.336Z,95478.34
2023-01-30T18:32:30.766Z,95479.13
2023-01-30T18:35:00.906Z,95481.19
2023-01-30T18:37:29.213Z,95489.00
2023-01-30T18:39:55.775Z,95495.06
2023-01-30T18:42:22.363Z,95504.91
2023-01-30T18:44:49.062Z,95518.84
2023-01-30T18:47:15.726Z,95523.19
2023-01-30T18:49:42.270Z,95522.38
2023-01-30T18:52:08.816Z,95525.72
2023-01-30T18:54:37.128Z,95525.06
2023-01-30T18:57:03.710Z,95519.09
2023-01-30T18:59:30.268Z,95527.84
2023-01-30T19:01:56.832Z,95516.06
2023-01-30T19:04:23.379Z,95529.16
2023-01-30T19:06:49.980Z,95523.16
2023-01-30T19:09:18.939Z,95544.66
2023-01-30T19:12:04.132Z,95527.72
2023-01-30T19:14:30.951Z,95525.47
2023-01-30T19:16:57.586Z,95526.53
2023-01-30T19:19:24.163Z,95528.50
2023-01-30T19:21:52.190Z,95532.59
2023-01-30T19:24:19.238Z,95533.53
2023-01-30T19:26:45.851Z,95548.84
2023-01-30T19:29:12.498Z,95548.50
2023-01-30T19:31:39.342Z,95547.94
2023-01-30T19:34:08.828Z,95547.28
2023-01-30T19:36:36.590Z,95555.09
2023-01-30T19:39:05.981Z,95554.03
2023-01-30T19:41:35.909Z,95560.13
2023-01-30T19:44:05.115Z,95559.41
2023-01-30T19:46:32.250Z,95564.69
2023-01-30T19:48:58.978Z,95577.84
2023-01-30T19:51:28.778Z,95580.59
2023-01-30T19:53:58.135Z,95584.31
2023-01-30T19:56:26.205Z,95596.28
2023-01-30T19:58:58.743Z,95602.03
2023-01-30T20:01:29.510Z,95607.88
2023-01-30T20:03:57.311Z,95609.25
2023-01-30T20:06:27.859Z,95612.38
2023-01-30T20:08:58.215Z,95613.97
2023-01-30T20:11:24.757Z,95612.81
2023-01-30T20:13:53.201Z,95607.31
2023-01-30T20:16:22.510Z,95612.84
2023-01-30T20:18:54.896Z,95610.97
2023-01-30T20:21:22.118Z,95621.72
2023-01-30T20:23:49.232Z,95621.16
2023-01-30T20:26:19.208Z,95622.63
2023-01-30T20:28:46.009Z,95627.28
2023-01-30T20:31:15.553Z,95629.38
2023-01-30T20:33:42.822Z,95637.88
2023-01-30T20:36:12.964Z,95628.63
2023-01-30T20:38:42.425Z,95633.97
2023-01-30T20:41:20.823Z,95640.44
2023-01-30T20:43:50.914Z,95634.50
2023-01-30T20:46:27.161Z,95637.75
2023-01-30T20:48:58.947Z,95630.53
2023-01-30T20:51:28.099Z,95623.97
2023-01-30T20:53:57.812Z,95617.84
2023-01-30T20:56:27.389Z,95621.50
2023-01-30T20:58:53.995Z,95625.16
2023-01-30T21:01:23.170Z,95622.97
2023-01-30T21:03:52.274Z,95623.63
2023-01-30T21:06:37.092Z,95617.22
2023-01-30T21:09:15.876Z,95632.97
2023-01-30T21:11:42.651Z,95621.09
2023-01-30T21:14:09.271Z,95635.75
2023-01-30T21:16:37.068Z,95623.22
2023-01-30T21:19:06.887Z,95633.38
2023-01-30T21:21:37.669Z,95628.31
2023-01-30T21:24:09.447Z,95633.72
2023-01-30T21:26:38.265Z,95632.97
2023-01-30T21:29:06.805Z,95637.00
2023-01-30T21:31:34.719Z,95635.38
2023-01-30T21:34:01.732Z,95636.53
2023-01-30T21:36:29.197Z,95639.78
2023-01-30T21:39:14.867Z,95636.91
2023-01-30T21:42:02.256Z,95643.22
2023-01-30T21:44:37.122Z,95638.78
2023-01-30T21:47:05.499Z,95639.72
2023-01-30T21:49:33.093Z,95651.69
2023-01-30T21:52:00.049Z,95656.59
2023-01-30T21:54:26.787Z,95656.69
2023-01-30T21:56:56.891Z,95659.22
2023-01-30T21:59:23.584Z,95650.28
2023-01-30T22:01:50.259Z,95646.75
2023-01-30T22:04:16.882Z,95657.34
2023-01-30T22:06:43.878Z,95656.13
2023-01-30T22:09:15.054Z,95648.88
2023-01-30T22:11:42.318Z,95641.50
2023-01-30T22:14:09.512Z,95643.13
2023-01-30T22:16:36.297Z,95648.13
2023-01-30T22:19:04.745Z,95635.19
2023-01-30T22:21:36.222Z,95625.19
2023-01-30T22:24:05.491Z,95631.03
2023-01-30T22:26:33.705Z,95630.94
2023-01-30T22:29:01.992Z,95635.69
2023-01-30T22:31:38.515Z,95633.56
2023-01-30T22:34:05.439Z,95638.66
2023-01-30T22:36:33.952Z,95652.03
2023-01-30T22:39:01.624Z,95647.72
2023-01-30T22:41:32.166Z,95661.47
2023-01-30T22:44:00.193Z,95647.41
2023-01-30T22:46:31.322Z,95659.31
2023-01-30T22:48:59.763Z,95657.44
2023-01-30T22:51:28.582Z,95665.53
2023-01-30T22:53:57.913Z,95661.06
2023-01-30T22:56:30.600Z,95670.41
2023-01-30T22:58:57.608Z,95672.19
2023-01-30T23:01:28.327Z,95669.00
2023-01-30T23:03:58.037Z,95672.75
2023-01-30T23:06:25.559Z,95671.06
2023-01-30T23:08:54.298Z,95664.81
2023-01-30T23:11:22.939Z,95663.91
2023-01-30T23:13:51.656Z,95663.50
2023-01-30T23:16:21.168Z,95667.75
2023-01-30T23:18:58.538Z,95671.97
2023-01-30T23:21:31.759Z,95672.13
2023-01-30T23:24:00.755Z,95665.31
2023-01-30T23:26:30.887Z,95660.78
2023-01-30T23:28:58.341Z,95665.88
2023-01-30T23:31:26.521Z,95669.66
2023-01-30T23:34:03.998Z,95667.31
2023-01-30T23:36:31.155Z,95663.19
2023-01-30T23:38:59.327Z,95678.69
2023-01-30T23:41:28.853Z,95658.50
2023-01-30T23:43:56.545Z,95667.69
2023-01-30T23:46:24.709Z,95684.25
2023-01-30T23:48:54.025Z,95679.50
2023-01-30T23:51:23.415Z,95675.16
